Time;durP1;ratioP1;P1;durP2;ratioP2;P2;SDS_P1;SDS_P2;PMS_P1;PMS_P2;Temp;Humidity;BMP_temperature;BMP_pressure;BME280_temperature;BME280_humidity;BME280_pressure;Samples;Min_cycle;Max_cycle;Signal;HPM_P1;HPM_P2
2020/12/05 00:00:23;;;;;;;0.20;0.10;;;;;;;4.27;100.00;97831.44;5053780;28;20462;-57
2020/12/05 00:02:50;;;;;;;0.63;0.60;;;;;;;4.29;100.00;97826.97;5053978;28;20500;-57
2020/12/05 00:05:16;;;;;;;0.30;0.20;;;;;;;4.25;100.00;97828.88;5052746;28;20443;-57
2020/12/05 00:07:43;;;;;;;0.20;0.20;;;;;;;4.32;100.00;97832.09;5053390;28;20471;-57
2020/12/05 00:10:09;;;;;;;0.20;0.20;;;;;;;4.30;100.00;97811.13;5052464;28;20523;-57
2020/12/05 00:12:35;;;;;;;0.20;0.10;;;;;;;4.30;100.00;97808.50;5053378;28;20451;-58
2020/12/05 00:15:02;;;;;;;0.20;0.10;;;;;;;4.30;100.00;97820.78;5039009;28;20986;-55
2020/12/05 00:17:31;;;;;;;0.20;0.20;;;;;;;4.35;100.00;97827.53;5053386;28;20467;-56
2020/12/05 00:19:58;;;;;;;0.20;0.20;;;;;;;4.22;100.00;97823.72;5053224;28;20490;-55
2020/12/05 00:22:25;;;;;;;0.20;0.20;;;;;;;4.29;100.00;97838.34;5047035;28;20456;-55
2020/12/05 00:24:51;;;;;;;0.20;0.10;;;;;;;4.22;100.00;97857.91;5053424;28;20454;-55
2020/12/05 00:27:20;;;;;;;0.20;0.10;;;;;;;4.31;100.00;97870.69;5053826;28;20904;-55
2020/12/05 00:29:47;;;;;;;0.20;0.10;;;;;;;4.39;100.00;97876.47;5053107;28;20455;-55
2020/12/05 00:32:14;;;;;;;0.30;0.13;;;;;;;4.41;100.00;97885.16;5053070;28;20458;-54
2020/12/05 00:34:40;;;;;;;0.20;0.10;;;;;;;4.44;100.00;97887.63;5053002;28;20933;-54
2020/12/05 00:37:06;;;;;;;0.53;0.53;;;;;;;4.06;100.00;97891.00;5052603;28;20478;-54
2020/12/05 00:39:32;;;;;;;0.20;0.10;;;;;;;3.99;100.00;97890.44;5053066;28;20512;-54
2020/12/05 00:41:58;;;;;;;0.20;0.10;;;;;;;3.85;100.00;97888.38;5052909;28;20443;-54
2020/12/05 00:44:24;;;;;;;0.20;0.10;;;;;;;3.93;100.00;97895.06;5052790;28;20454;-55
2020/12/05 00:46:50;;;;;;;0.20;0.10;;;;;;;4.11;100.00;97895.19;5051373;28;20903;-55
2020/12/05 00:49:17;;;;;;;0.30;0.10;;;;;;;4.19;100.00;97884.34;5053027;28;20447;-55
2020/12/05 00:51:47;;;;;;;0.20;0.20;;;;;;;4.12;100.00;97878.50;5052193;28;20450;-55
2020/12/05 00:54:14;;;;;;;1.73;0.73;;;;;;;4.08;100.00;97886.56;5052603;28;21097;-56
2020/12/05 00:56:42;;;;;;;0.20;0.10;;;;;;;4.14;100.00;97883.69;5052636;28;20867;-56
2020/12/05 00:59:08;;;;;;;0.20;0.20;;;;;;;4.23;100.00;97891.16;5052808;28;20502;-56
2020/12/05 01:01:34;;;;;;;0.20;0.20;;;;;;;4.26;100.00;97891.06;5052711;28;20524;-57
2020/12/05 01:04:02;;;;;;;0.20;0.10;;;;;;;4.19;100.00;97884.34;5052335;28;20450;-57
2020/12/05 01:06:28;;;;;;;0.20;0.10;;;;;;;4.15;100.00;97894.13;5052324;28;20936;-56
2020/12/05 01:08:54;;;;;;;0.20;0.10;;;;;;;4.25;100.00;97899.88;5052297;28;20443;-56
2020/12/05 01:11:20;;;;;;;0.20;0.10;;;;;;;4.29;100.00;97900.59;5052515;28;20442;-56
2020/12/05 01:13:48;;;;;;;0.20;0.10;;;;;;;4.31;100.00;97906.63;5052585;28;20504;-56
2020/12/05 01:16:16;;;;;;;0.20;0.20;;;;;;;4.26;100.00;97911.25;5051660;28;20454;-56
2020/12/05 01:18:43;;;;;;;0.20;0.10;;;;;;;4.31;100.00;97906.63;5043637;28;20968;-56
2020/12/05 01:21:13;;;;;;;0.20;0.10;;;;;;;4.33;100.00;97913.53;5047613;28;20853;-56
2020/12/05 01:23:39;;;;;;;0.20;0.20;;;;;;;4.27;100.00;97911.19;5044675;28;20450;-55
2020/12/05 01:26:09;;;;;;;0.20;0.10;;;;;;;4.25;100.00;97904.25;5052366;28;20864;-56
2020/12/05 01:28:35;;;;;;;0.20;0.10;;;;;;;4.22;100.00;97912.25;5052106;28;20462;-56
2020/12/05 01:31:03;;;;;;;0.20;0.10;;;;;;;4.17;100.00;97915.09;5051879;28;20458;-56
2020/12/05 01:33:31;;;;;;;0.20;0.10;;;;;;;4.12;100.00;97907.41;5052224;28;20501;-56
2020/12/05 01:36:01;;;;;;;0.20;0.10;;;;;;;4.21;100.00;97914.03;5051729;28;21129;-56
2020/12/05 01:38:27;;;;;;;0.20;0.10;;;;;;;4.24;100.00;97907.78;5052216;28;20490;-56
2020/12/05 01:40:59;;;;;;;1.50;1.50;;;;;;;4.19;100.00;97920.28;5038683;28;20447;-55
2020/12/05 01:43:27;;;;;;;0.20;0.10;;;;;;;4.17;100.00;97922.97;5052168;28;20836;-56
2020/12/05 01:45:54;;;;;;;0.20;0.20;;;;;;;4.11;100.00;97923.22;5038639;28;20463;-56
2020/12/05 01:48:21;;;;;;;0.20;0.10;;;;;;;4.12;100.00;97924.94;5051890;28;20469;-56
2020/12/05 01:50:48;;;;;;;0.20;0.20;;;;;;;4.10;100.00;97929.38;5052343;28;20783;-56
2020/12/05 01:53:15;;;;;;;0.20;0.10;;;;;;;4.03;100.00;97944.56;5051700;28;20451;-55
2020/12/05 01:55:46;;;;;;;0.20;0.20;;;;;;;3.99;100.00;97956.13;5052420;28;20451;-55
2020/12/05 01:58:13;;;;;;;0.27;0.20;;;;;;;4.01;100.00;97956.91;5051346;28;20867;-55
2020/12/05 02:00:40;;;;;;;0.20;0.20;;;;;;;4.01;100.00;97961.31;5052042;28;20520;-55
2020/12/05 02:03:07;;;;;;;0.20;0.10;;;;;;;4.08;100.00;97968.03;5051853;28;20450;-55
2020/12/05 02:05:54;;;;;;;0.20;0.20;;;;;;;4.13;100.00;97973.97;5051964;28;20450;-56
2020/12/05 02:08:35;;;;;;;0.20;0.10;;;;;;;4.09;100.00;97977.63;5051592;28;20454;-55
2020/12/05 02:11:02;;;;;;;0.20;0.10;;;;;;;4.07;100.00;97984.72;5052147;28;20820;-56
2020/12/05 02:13:40;;;;;;;0.20;0.20;;;;;;;4.01;100.00;97977.94;5051493;28;20974;-56
2020/12/05 02:16:06;;;;;;;0.30;0.30;;;;;;;3.98;100.00;97983.34;5051905;28;20450;-56
2020/12/05 02:18:34;;;;;;;0.20;0.10;;;;;;;3.95;100.00;97972.06;5052428;28;20494;-55
2020/12/05 02:21:03;;;;;;;12.83;3.00;;;;;;;4.00;100.00;97973.63;5051595;28;20944;-55
2020/12/05 02:23:30;;;;;;;1.33;1.33;;;;;;;4.02;100.00;97971.78;5045018;28;20460;-55
2020/12/05 02:26:02;;;;;;;0.20;0.10;;;;;;;4.08;100.00;97962.78;5051922;28;20446;-56
2020/12/05 02:28:29;;;;;;;0.20;0.10;;;;;;;4.10;100.00;97967.03;5052737;28;20470;-56
2020/12/05 02:30:55;;;;;;;0.30;0.10;;;;;;;4.08;100.00;97973.28;5055228;28;20521;-55
2020/12/05 02:33:22;;;;;;;0.20;0.10;;;;;;;4.04;100.00;97977.81;5054170;28;20454;-55
2020/12/05 02:35:48;;;;;;;0.20;0.10;;;;;;;4.09;100.00;97967.13;5055107;28;20469;-55
2020/12/05 02:38:22;;;;;;;0.20;0.10;;;;;;;4.14;100.00;97970.44;5055037;28;20491;-55
2020/12/05 02:40:50;;;;;;;0.20;0.20;;;;;;;4.12;100.00;97982.78;5042136;28;20442;-56
2020/12/05 02:43:17;;;;;;;0.20;0.10;;;;;;;4.08;100.00;97995.16;5055078;28;20454;-56
2020/12/05 02:45:43;;;;;;;0.20;0.10;;;;;;;4.09;100.00;97994.25;5055043;28;20458;-56
2020/12/05 02:48:10;;;;;;;0.20;0.10;;;;;;;4.00;100.00;97999.03;5055048;28;20470;-56
2020/12/05 02:50:37;;;;;;;0.20;0.10;;;;;;;4.02;100.00;97997.19;5055312;28;20481;-56
2020/12/05 02:53:03;;;;;;;0.20;0.10;;;;;;;4.03;100.00;97994.50;5042557;28;20448;-56
2020/12/05 02:55:29;;;;;;;0.30;0.20;;;;;;;4.00;100.00;97994.63;5055044;28;20446;-55
2020/12/05 02:57:56;;;;;;;0.20;0.10;;;;;;;3.97;100.00;97996.50;5055290;28;20474;-56
2020/12/05 03:00:22;;;;;;;0.20;0.10;;;;;;;4.01;100.00;97998.13;5041530;28;20459;-56
2020/12/05 03:02:50;;;;;;;0.20;0.10;;;;;;;4.02;100.00;98000.69;5054707;28;20458;-56
2020/12/05 03:05:18;;;;;;;0.20;0.10;;;;;;;4.04;100.00;98012.00;5041453;28;20451;-55
2020/12/05 03:07:45;;;;;;;0.20;0.10;;;;;;;3.82;100.00;98005.84;5054474;28;20470;-56
2020/12/05 03:10:11;;;;;;;0.20;0.20;;;;;;;3.91;100.00;98013.38;5054745;28;20948;-56
2020/12/05 03:12:37;;;;;;;0.20;0.10;;;;;;;3.87;100.00;98024.94;5054715;28;20451;-56
2020/12/05 03:15:04;;;;;;;0.30;0.20;;;;;;;3.77;100.00;98021.78;5054497;28;20451;-56
2020/12/05 03:17:30;;;;;;;0.20;0.10;;;;;;;3.80;100.00;98011.16;5054444;28;20478;-56
2020/12/05 03:19:56;;;;;;;0.20;0.10;;;;;;;3.81;100.00;98015.50;5053454;28;20498;-57
2020/12/05 03:22:22;;;;;;;0.20;0.20;;;;;;;3.81;100.00;98023.38;5048204;28;20861;-56
2020/12/05 03:24:48;;;;;;;0.20;0.20;;;;;;;3.78;100.00;98035.78;5054171;28;20906;-57
2020/12/05 03:27:15;;;;;;;0.20;0.10;;;;;;;3.74;100.00;98040.31;5054268;28;20528;-57
2020/12/05 03:29:41;;;;;;;0.30;0.20;;;;;;;3.72;100.00;98047.38;5054367;28;20450;-57
2020/12/05 03:32:16;;;;;;;0.20;0.10;;;;;;;3.65;100.00;98056.41;5054374;28;20496;-56
2020/12/05 03:34:43;;;;;;;0.20;0.10;;;;;;;3.80;100.00;98055.81;5054153;28;20439;-56
2020/12/05 03:37:10;;;;;;;0.30;0.20;;;;;;;3.92;100.00;98061.53;5052073;28;20481;-56
2020/12/05 03:39:36;;;;;;;1.23;1.23;;;;;;;3.99;100.00;98070.91;5045595;28;20494;-56
2020/12/05 03:42:02;;;;;;;0.20;0.10;;;;;;;4.00;100.00;98070.00;5049141;28;20520;-56
2020/12/05 03:44:29;;;;;;;0.20;0.10;;;;;;;3.97;100.00;98084.09;5054362;28;20450;-55
2020/12/05 03:46:57;;;;;;;0.20;0.10;;;;;;;3.95;100.00;98085.06;5053374;28;20489;-55
2020/12/05 03:49:30;;;;;;;0.20;0.20;;;;;;;3.99;100.00;98091.94;5053945;28;20458;-56
2020/12/05 03:51:58;;;;;;;0.20;0.10;;;;;;;4.05;100.00;98095.19;5053548;28;20463;-55
2020/12/05 03:54:24;;;;;;;0.20;0.10;;;;;;;4.04;100.00;98103.13;5054171;28;20505;-56
2020/12/05 03:56:51;;;;;;;0.20;0.10;;;;;;;4.01;100.00;98108.50;5053505;28;20980;-55
2020/12/05 03:59:17;;;;;;;0.20;0.20;;;;;;;4.08;100.00;98099.47;5052808;28;20490;-54
2020/12/05 04:01:44;;;;;;;0.20;0.10;;;;;;;4.10;100.00;98103.72;5053214;28;20521;-55
2020/12/05 04:04:10;;;;;;;0.20;0.10;;;;;;;4.12;100.00;98104.56;5053630;28;20947;-56
2020/12/05 04:06:36;;;;;;;0.20;0.13;;;;;;;4.07;100.00;98106.50;5053662;28;20466;-56
2020/12/05 04:09:03;;;;;;;0.20;0.10;;;;;;;4.01;100.00;98101.47;5053573;28;20944;-56
2020/12/05 04:11:29;;;;;;;0.20;0.10;;;;;;;4.04;100.00;98106.59;5053411;28;20462;-56
2020/12/05 04:13:56;;;;;;;0.20;0.10;;;;;;;4.10;100.00;98109.00;5053602;28;20473;-56
2020/12/05 04:16:22;;;;;;;0.30;0.20;;;;;;;4.03;100.00;98106.66;5053307;28;20993;-55
2020/12/05 04:18:48;;;;;;;0.20;0.10;;;;;;;4.02;100.00;98115.47;5043642;28;20500;-55
2020/12/05 04:21:15;;;;;;;0.27;0.20;;;;;;;4.05;100.00;98123.25;5049953;28;20458;-55
2020/12/05 04:23:41;;;;;;;0.20;0.10;;;;;;;4.07;100.00;98114.38;5046309;28;20454;-55
2020/12/05 04:26:09;;;;;;;0.30;0.20;;;;;;;4.10;100.00;98111.63;5053038;28;20446;-55
2020/12/05 04:28:36;;;;;;;0.20;0.10;;;;;;;4.05;100.00;98115.34;5053152;28;20467;-55
2020/12/05 04:31:03;;;;;;;0.20;0.10;;;;;;;4.08;100.00;98113.47;5053463;28;20451;-55
2020/12/05 04:33:29;;;;;;;0.20;0.10;;;;;;;4.01;100.00;98119.03;5053314;28;20450;-56
2020/12/05 04:35:55;;;;;;;0.30;0.30;;;;;;;4.14;100.00;98134.28;5052524;28;20847;-56
2020/12/05 04:38:22;;;;;;;0.30;0.20;;;;;;;4.12;100.00;98141.38;5052825;28;20470;-56
2020/12/05 04:40:48;;;;;;;0.20;0.17;;;;;;;4.07;100.00;98151.19;5039831;28;20450;-55
2020/12/05 04:43:14;;;;;;;0.20;0.10;;;;;;;4.04;100.00;98147.81;5052775;28;20462;-55
2020/12/05 04:45:41;;;;;;;0.20;0.10;;;;;;;4.06;100.00;98152.09;5052862;28;20462;-55
2020/12/05 04:48:08;;;;;;;0.20;0.10;;;;;;;4.07;100.00;98152.94;5052716;28;20484;-55
2020/12/05 04:50:35;;;;;;;1.30;1.30;;;;;;;4.03;100.00;98161.88;5052082;28;20945;-55
2020/12/05 04:53:16;;;;;;;0.40;0.40;;;;;;;4.12;100.00;98167.66;5040988;28;20452;-56
2020/12/05 04:55:43;;;;;;;0.20;0.20;;;;;;;4.07;100.00;98173.97;5038136;28;20959;-56
2020/12/05 04:58:22;;;;;;;0.27;0.10;;;;;;;3.98;100.00;98169.94;5034654;28;20476;-57
2020/12/05 05:00:57;;;;;;;0.20;0.10;;;;;;;3.94;100.00;98157.78;5052566;28;20479;-55
2020/12/05 05:03:25;;;;;;;0.30;0.10;;;;;;;3.91;100.00;98146.53;5052636;28;20446;-54
2020/12/05 05:05:56;;;;;;;0.20;0.10;;;;;;;3.89;100.00;98143.13;5052396;28;20461;-55
2020/12/05 05:08:28;;;;;;;0.20;0.10;;;;;;;3.89;100.00;98143.97;5052044;28;20476;-56
2020/12/05 05:11:09;;;;;;;0.20;0.10;;;;;;;3.85;100.00;98137.13;5052672;28;20454;-56
2020/12/05 05:13:55;;;;;;;0.60;0.60;;;;;;;3.80;100.00;98144.28;5052564;28;20450;-56
2020/12/05 05:16:23;;;;;;;0.20;0.10;;;;;;;3.68;100.00;98157.88;5052300;28;20447;-56
2020/12/05 05:18:50;;;;;;;0.20;0.10;;;;;;;3.73;100.00;98188.34;5051799;28;20526;-56
2020/12/05 05:21:36;;;;;;;1.77;1.60;;;;;;;3.78;100.00;98204.78;5052483;28;20466;-56
2020/12/05 05:24:17;;;;;;;0.20;0.10;;;;;;;3.85;100.00;98226.47;5046259;28;20454;-57
2020/12/05 05:26:44;;;;;;;0.20;0.20;;;;;;;3.85;100.00;98237.84;5052219;28;20453;-56
2020/12/05 05:29:29;;;;;;;0.20;0.10;;;;;;;3.81;100.00;98249.34;5051871;28;20805;-56
2020/12/05 05:32:02;;;;;;;0.20;0.10;;;;;;;3.58;100.00;98270.28;5052314;28;20447;-56
2020/12/05 05:34:29;;;;;;;0.20;0.10;;;;;;;3.55;100.00;98278.25;5052001;28;20940;-56
2020/12/05 05:36:57;;;;;;;0.37;0.37;;;;;;;3.37;100.00;98282.34;5051850;28;20473;-56
2020/12/05 05:39:23;;;;;;;0.20;0.10;;;;;;;3.52;100.00;98284.47;5032252;28;20497;-56
2020/12/05 05:41:52;;;;;;;0.20;0.10;;;;;;;3.48;100.00;98296.00;5045044;28;20446;-56
2020/12/05 05:44:28;;;;;;;0.20;0.10;;;;;;;3.50;100.00;98294.16;5039882;28;20454;-56
2020/12/05 05:46:55;;;;;;;0.20;0.10;;;;;;;3.55;100.00;98294.00;5051021;28;20486;-56
2020/12/05 05:49:30;;;;;;;0.20;0.10;;;;;;;3.51;100.00;98297.66;5051979;28;20446;-56
2020/12/05 05:51:58;;;;;;;0.20;0.10;;;;;;;3.52;100.00;98296.75;5049046;28;20462;-56
2020/12/05 05:54:29;;;;;;;0.20;0.20;;;;;;;3.55;100.00;98292.25;5041852;28;20459;-56
2020/12/05 05:57:04;;;;;;;0.20;0.17;;;;;;;3.64;100.00;98290.22;5051472;28;20991;-56
2020/12/05 05:59:38;;;;;;;0.20;0.10;;;;;;;3.80;100.00;98291.44;5051781;28;20883;-56
2020/12/05 06:02:26;;;;;;;0.20;0.10;;;;;;;3.79;100.00;98282.69;5054245;28;20450;-56
2020/12/05 06:04:52;;;;;;;0.20;0.10;;;;;;;3.85;100.00;98287.75;5055796;28;20934;-56
2020/12/05 06:07:26;;;;;;;0.20;0.10;;;;;;;3.93;100.00;98276.13;5056042;28;20467;-56
2020/12/05 06:09:54;;;;;;;0.77;0.73;;;;;;;3.92;100.00;98277.88;5055862;28;20796;-56
2020/12/05 06:12:21;;;;;;;0.20;0.10;;;;;;;3.96;100.00;98278.63;5055545;28;20458;-56
2020/12/05 06:14:51;;;;;;;0.20;0.10;;;;;;;3.81;100.00;98267.72;5055005;28;20450;-57
2020/12/05 06:17:19;;;;;;;0.20;0.10;;;;;;;3.80;100.00;98276.53;5035558;28;20981;-56
2020/12/05 06:19:47;;;;;;;0.20;0.10;;;;;;;3.79;100.00;98272.19;5053801;28;20493;-56
2020/12/05 06:22:47;;;;;;;0.20;0.10;;;;;;;3.71;100.00;98274.22;5050527;28;20861;-56
2020/12/05 06:25:19;;;;;;;0.20;0.10;;;;;;;3.77;100.00;98276.63;5041596;28;20462;-56
2020/12/05 06:27:57;;;;;;;0.20;0.10;;;;;;;3.60;100.00;98286.00;5052676;28;20485;-56
2020/12/05 06:30:24;;;;;;;0.20;0.10;;;;;;;3.63;100.00;98291.16;5055809;28;20439;-56
2020/12/05 06:32:50;;;;;;;0.20;0.20;;;;;;;3.45;100.00;98311.84;5055378;28;20940;-56
2020/12/05 06:35:19;;;;;;;0.30;0.10;;;;;;;3.52;100.00;98323.00;5055698;28;20457;-56
2020/12/05 06:37:46;;;;;;;0.30;0.20;;;;;;;3.57;100.00;98336.88;5054950;28;20469;-56
2020/12/05 06:40:13;;;;;;;0.20;0.20;;;;;;;3.50;100.00;98345.84;5041551;28;20502;-57
2020/12/05 06:42:44;;;;;;;0.20;0.10;;;;;;;3.47;100.00;98357.31;5046913;28;20479;-56
2020/12/05 06:45:26;;;;;;;0.20;0.10;;;;;;;3.57;100.00;98360.50;5050405;28;20462;-56
2020/12/05 06:48:12;;;;;;;0.20;0.10;;;;;;;3.56;100.00;98366.63;5055590;28;20466;-56
2020/12/05 06:50:41;;;;;;;0.20;0.10;;;;;;;3.59;100.00;98371.81;5043237;28;20852;-56
2020/12/05 06:53:19;;;;;;;0.20;0.10;;;;;;;3.80;100.00;98386.88;5042476;28;20452;-56
2020/12/05 06:55:50;;;;;;;0.20;0.20;;;;;;;3.82;100.00;98395.56;5042945;28;20461;-56
2020/12/05 06:58:24;;;;;;;0.20;0.20;;;;;;;3.78;100.00;98386.09;5037689;28;20589;-56
2020/12/05 07:00:50;;;;;;;0.93;0.93;;;;;;;3.77;100.00;98389.63;5054811;28;20454;-57
2020/12/05 07:03:27;;;;;;;0.20;0.10;;;;;;;3.82;100.00;98384.22;5054845;28;20500;-56
2020/12/05 07:05:54;;;;;;;0.20;0.10;;;;;;;3.74;100.00;98383.59;5053292;28;20577;-56
2020/12/05 07:08:24;;;;;;;0.20;0.10;;;;;;;3.90;100.00;98407.63;5041494;28;20528;-56
2020/12/05 07:11:15;;;;;;;0.30;0.20;;;;;;;3.89;100.00;98416.41;5055130;28;20482;-56
2020/12/05 07:13:46;;;;;;;0.20;0.20;;;;;;;3.74;100.00;98423.03;5054206;28;20534;-56
2020/12/05 07:16:17;;;;;;;0.20;0.20;;;;;;;3.77;100.00;98430.81;5046215;28;20459;-56
2020/12/05 07:18:45;;;;;;;0.20;0.10;;;;;;;3.80;100.00;98425.44;5054686;28;20474;-56
2020/12/05 07:21:12;;;;;;;0.20;0.20;;;;;;;3.95;100.00;98431.97;5054571;28;20454;-56
2020/12/05 07:23:38;;;;;;;0.20;0.20;;;;;;;4.01;100.00;98426.53;5047645;28;20447;-56
2020/12/05 07:26:05;;;;;;;0.30;0.20;;;;;;;4.13;100.00;98428.78;5054241;28;20822;-57
2020/12/05 07:28:32;;;;;;;0.20;0.10;;;;;;;4.18;100.00;98426.00;5054552;28;20471;-56
2020/12/05 07:30:58;;;;;;;0.20;0.10;;;;;;;4.23;100.00;98437.19;5052310;28;20456;-56
2020/12/05 07:33:24;;;;;;;0.20;0.10;;;;;;;4.25;100.00;98438.00;5034937;28;20455;-57
2020/12/05 07:36:06;;;;;;;0.20;0.10;;;;;;;4.24;100.00;98452.91;5036122;28;20458;-56
2020/12/05 07:38:36;;;;;;;0.20;0.10;;;;;;;4.19;100.00;98449.59;5053923;28;20463;-58
2020/12/05 07:41:16;;;;;;;0.20;0.10;;;;;;;4.14;100.00;98452.38;5041203;28;20446;-58
2020/12/05 07:43:43;;;;;;;0.20;0.10;;;;;;;4.13;100.00;98469.06;5054212;28;20435;-58
2020/12/05 07:46:11;;;;;;;0.20;0.10;;;;;;;4.14;100.00;98477.81;5053760;28;20948;-58
2020/12/05 07:48:38;;;;;;;0.20;0.10;;;;;;;4.23;100.00;98479.28;5040107;28;20482;-58
2020/12/05 07:51:13;;;;;;;0.20;0.10;;;;;;;4.17;100.00;98488.22;5053769;28;20450;-57
2020/12/05 07:53:40;;;;;;;0.20;0.10;;;;;;;4.19;100.00;98489.03;5041028;28;20450;-57
2020/12/05 07:56:19;;;;;;;0.20;0.10;;;;;;;4.22;100.00;98499.44;5053814;28;20508;-57
2020/12/05 07:58:53;;;;;;;0.20;0.10;;;;;;;4.32;100.00;98516.66;5053809;28;20473;-57
2020/12/05 08:01:51;;;;;;;0.20;0.10;;;;;;;4.39;100.00;98526.09;5053688;28;20469;-57
2020/12/05 08:04:36;;;;;;;0.20;0.10;;;;;;;4.53;100.00;98528.28;5045930;28;20956;-57
2020/12/05 08:07:04;;;;;;;0.20;0.13;;;;;;;4.58;100.00;98531.59;5053768;28;20528;-57
2020/12/05 08:09:38;;;;;;;0.20;0.10;;;;;;;4.42;100.00;98518.09;5053307;28;20450;-58
2020/12/05 08:12:10;;;;;;;0.20;0.20;;;;;;;4.34;100.00;98508.72;5053547;28;20450;-57
2020/12/05 08:14:38;;;;;;;0.20;0.10;;;;;;;4.31;100.00;98509.69;5053576;28;20453;-57
2020/12/05 08:17:05;;;;;;;1.13;1.13;;;;;;;4.22;100.00;98496.81;5051943;28;20524;-57
2020/12/05 08:19:32;;;;;;;0.20;0.20;;;;;;;4.21;100.00;98491.63;5049005;28;20490;-57
2020/12/05 08:22:07;;;;;;;0.20;0.10;;;;;;;4.19;100.00;98503.94;5050270;28;20478;-58
2020/12/05 08:24:49;;;;;;;0.20;0.10;;;;;;;4.14;100.00;98512.00;5051019;28;20446;-58
2020/12/05 08:27:17;;;;;;;0.20;0.10;;;;;;;4.11;100.00;98505.06;5053215;28;20524;-58
2020/12/05 08:29:43;;;;;;;0.20;0.10;;;;;;;4.11;100.00;98520.84;5053385;28;20454;-57
2020/12/05 08:32:25;;;;;;;0.20;0.10;;;;;;;4.20;100.00;98524.06;5052841;28;20530;-57
2020/12/05 08:35:06;;;;;;;0.20;0.10;;;;;;;4.17;100.00;98530.28;5051662;28;20857;-57
2020/12/05 08:37:33;;;;;;;0.20;0.10;;;;;;;4.17;100.00;98535.56;5043793;28;20483;-57
2020/12/05 08:39:59;;;;;;;0.20;0.13;;;;;;;4.20;100.00;98532.81;5051671;28;20482;-57
2020/12/05 08:42:26;;;;;;;0.20;0.10;;;;;;;4.24;100.00;98538.84;5034806;28;20451;-58
2020/12/05 08:44:53;;;;;;;0.20;0.10;;;;;;;4.31;100.00;98538.59;5045549;28;20451;-57
2020/12/05 08:47:19;;;;;;;0.30;0.20;;;;;;;4.33;100.00;98543.81;5047929;28;20479;-58
2020/12/05 08:49:50;;;;;;;0.20;0.10;;;;;;;4.33;100.00;98544.69;5033648;28;20534;-57
2020/12/05 08:52:17;;;;;;;0.30;0.30;;;;;;;4.35;100.00;98539.38;5045898;28;20454;-57
2020/12/05 08:54:50;;;;;;;2.47;2.27;;;;;;;4.58;100.00;98554.41;5045166;28;20458;-57
2020/12/05 08:57:18;;;;;;;0.20;0.20;;;;;;;4.65;100.00;98535.72;5032861;28;20471;-57
2020/12/05 08:59:45;;;;;;;0.20;0.10;;;;;;;4.97;100.00;98531.19;5046228;28;20493;-58
2020/12/05 09:02:15;;;;;;;0.20;0.10;;;;;;;5.00;100.00;98537.19;5052708;28;20459;-57
2020/12/05 09:04:41;;;;;;;0.20;0.10;;;;;;;4.92;100.00;98547.13;5052594;28;20454;-57
2020/12/05 09:07:16;;;;;;;0.30;0.30;;;;;;;4.75;100.00;98547.69;5045130;28;20472;-57
2020/12/05 09:09:46;;;;;;;0.20;0.10;;;;;;;4.68;100.00;98550.59;5032519;28;20467;-57
2020/12/05 09:12:16;;;;;;;0.60;0.60;;;;;;;4.66;100.00;98547.13;5032999;28;20444;-58
2020/12/05 09:14:47;;;;;;;0.20;0.10;;;;;;;4.57;100.00;98547.44;5048712;28;20450;-57
2020/12/05 09:17:24;;;;;;;0.30;0.20;;;;;;;4.54;100.00;98556.31;5052409;28;20872;-57
2020/12/05 09:19:58;;;;;;;0.20;0.10;;;;;;;4.64;100.00;98570.00;5052697;28;20557;-58
2020/12/05 09:22:31;;;;;;;0.30;0.20;;;;;;;4.74;100.00;98571.44;5045943;28;20463;-57
2020/12/05 09:24:59;;;;;;;0.20;0.10;;;;;;;4.78;100.00;98573.03;5039456;28;20451;-58
2020/12/05 09:27:41;;;;;;;0.20;0.10;;;;;;;4.85;100.00;98579.84;5052162;28;20540;-58
2020/12/05 09:30:12;;;;;;;0.47;0.40;;;;;;;4.92;100.00;98585.75;5037906;28;20869;-57
2020/12/05 09:32:40;;;;;;;0.20;0.10;;;;;;;4.96;100.00;98582.97;5044855;28;20463;-57
2020/12/05 09:35:08;;;;;;;0.73;0.73;;;;;;;5.01;100.00;98577.53;5052547;28;20454;-58
2020/12/05 09:37:34;;;;;;;0.50;0.50;;;;;;;5.19;100.00;98563.75;5040367;28;20466;-58
2020/12/05 09:40:00;;;;;;;0.20;0.10;;;;;;;5.48;100.00;98557.47;5040631;28;20480;-57
2020/12/05 09:42:26;;;;;;;1.47;1.37;;;;;;;5.20;100.00;98548.78;5050558;28;20496;-58
2020/12/05 09:44:53;;;;;;;0.30;0.20;;;;;;;5.19;100.00;98550.56;5051964;28;20447;-58
2020/12/05 09:47:19;;;;;;;0.20;0.20;;;;;;;5.28;100.00;98533.59;5051835;28;20473;-58
2020/12/05 09:49:45;;;;;;;0.30;0.20;;;;;;;5.33;100.00;98518.47;5046244;28;20482;-58
2020/12/05 09:52:11;;;;;;;0.20;0.20;;;;;;;5.30;100.00;98529.97;5038713;28;20590;-57
2020/12/05 09:54:38;;;;;;;0.30;0.20;;;;;;;5.36;100.00;98536.81;5052197;28;20447;-57
2020/12/05 09:57:04;;;;;;;0.30;0.20;;;;;;;5.64;100.00;98531.41;5051766;28;20470;-58
2020/12/05 09:59:30;;;;;;;1.17;1.17;;;;;;;5.50;100.00;98553.00;5051792;28;20536;-58
2020/12/05 10:01:56;;;;;;;0.30;0.23;;;;;;;5.46;100.00;98568.94;5051978;28;20500;-58
2020/12/05 10:04:23;;;;;;;0.30;0.10;;;;;;;5.50;100.00;98566.16;5039733;28;20444;-58
2020/12/05 10:06:49;;;;;;;0.30;0.20;;;;;;;5.69;100.00;98568.13;5045568;28;20451;-58
2020/12/05 10:09:15;;;;;;;0.30;0.20;;;;;;;5.55;100.00;98560.72;5044441;28;20507;-57
2020/12/05 10:11:42;;;;;;;1.70;1.70;;;;;;;5.34;100.00;98570.25;5040803;28;20474;-57
2020/12/05 10:14:08;;;;;;;0.20;0.20;;;;;;;5.39;100.00;98568.31;5052222;28;20489;-57
2020/12/05 10:16:34;;;;;;;0.30;0.30;;;;;;;5.27;100.00;98574.03;5046247;28;20513;-57
2020/12/05 10:19:01;;;;;;;0.40;0.40;;;;;;;5.31;100.00;98594.91;5031599;28;20867;-58
2020/12/05 10:21:27;;;;;;;0.23;0.10;;;;;;;5.31;100.00;98592.28;5031720;28;20953;-57
2020/12/05 10:23:53;;;;;;;0.20;0.20;;;;;;;5.31;100.00;98591.44;5032057;28;20458;-57
2020/12/05 10:26:20;;;;;;;0.60;0.60;;;;;;;5.49;100.00;98585.53;5044376;28;20487;-57
2020/12/05 10:28:46;;;;;;;0.30;0.10;;;;;;;5.48;100.00;98585.56;5032153;28;20468;-57
2020/12/05 10:31:12;;;;;;;0.30;0.20;;;;;;;5.62;100.00;98588.59;5037384;28;20451;-55
2020/12/05 10:33:38;;;;;;;0.20;0.20;;;;;;;5.66;100.00;98595.47;5051811;28;20458;-56
2020/12/05 10:36:04;;;;;;;0.30;0.20;;;;;;;5.78;100.00;98596.81;5055403;28;20866;-56
2020/12/05 10:38:30;;;;;;;0.30;0.30;;;;;;;5.85;100.00;98590.38;5058750;28;20497;-56
2020/12/05 10:40:56;;;;;;;0.23;0.13;;;;;;;5.77;100.00;98592.44;5032323;28;20910;-56
2020/12/05 10:43:22;;;;;;;0.20;0.20;;;;;;;5.71;100.00;98600.56;5043268;28;20447;-56
2020/12/05 10:45:49;;;;;;;0.30;0.10;;;;;;;5.65;100.00;98620.09;5036950;28;20459;-56
2020/12/05 10:48:15;;;;;;;0.30;0.20;;;;;;;5.74;100.00;98627.66;5052151;28;20478;-56
2020/12/05 10:50:41;;;;;;;0.30;0.10;;;;;;;5.85;100.00;98627.28;5035910;28;20447;-56
2020/12/05 10:53:07;;;;;;;0.30;0.10;;;;;;;5.96;100.00;98619.88;5048488;28;20447;-56
2020/12/05 10:55:33;;;;;;;0.30;0.20;;;;;;;6.01;100.00;98624.97;5041835;28;20470;-56
2020/12/05 10:58:04;;;;;;;0.27;0.20;;;;;;;6.10;100.00;98640.47;5041406;28;21004;-56
2020/12/05 11:00:30;;;;;;;0.20;0.20;;;;;;;6.10;100.00;98637.81;5047987;28;20486;-56
2020/12/05 11:02:56;;;;;;;0.30;0.13;;;;;;;5.94;100.00;98633.13;5048198;28;20869;-57
2020/12/05 11:05:22;;;;;;;0.30;0.10;;;;;;;6.04;100.00;98627.53;5042246;28;20499;-57
2020/12/05 11:07:48;;;;;;;0.23;0.20;;;;;;;6.10;100.00;98628.13;5054365;28;20470;-56
2020/12/05 11:10:15;;;;;;;0.20;0.17;;;;;;;6.02;100.00;98626.69;5054236;28;20520;-57
2020/12/05 11:12:41;;;;;;;0.30;0.20;;;;;;;6.04;100.00;98630.16;5054675;28;20451;-56
2020/12/05 11:15:08;;;;;;;0.30;0.20;;;;;;;6.07;100.00;98638.81;5047749;28;20444;-57
2020/12/05 11:17:34;;;;;;;0.20;0.10;;;;;;;6.06;100.00;98652.06;5034362;28;20848;-57
2020/12/05 11:20:00;;;;;;;0.20;0.10;;;;;;;6.01;100.00;98651.34;5041596;28;20490;-56
2020/12/05 11:22:26;;;;;;;0.20;0.20;;;;;;;6.10;100.00;98643.09;5047806;28;20941;-57
2020/12/05 11:24:52;;;;;;;0.30;0.10;;;;;;;5.86;100.00;98658.84;5046541;28;20510;-56
2020/12/05 11:27:19;;;;;;;0.23;0.13;;;;;;;5.94;100.00;98643.66;5048501;28;21000;-57
2020/12/05 11:29:45;;;;;;;0.30;0.20;;;;;;;6.30;100.00;98647.63;5054223;28;20451;-56
2020/12/05 11:32:11;;;;;;;0.20;0.20;;;;;;;6.15;100.00;98663.09;5054499;28;20462;-57
2020/12/05 11:34:37;;;;;;;0.20;0.17;;;;;;;6.07;100.00;98673.09;5054428;28;20454;-56
2020/12/05 11:37:03;;;;;;;0.30;0.17;;;;;;;6.15;100.00;98676.28;5042923;28;20468;-56
2020/12/05 11:39:29;;;;;;;0.20;0.20;;;;;;;6.06;100.00;98679.28;5053413;28;20501;-56
2020/12/05 11:41:55;;;;;;;0.20;0.20;;;;;;;6.07;100.00;98681.00;5040703;28;20451;-57